Ilheus, Brazil
Current Conditions -  °F | °C
As of 1:00 PM on Sunday 25 Jan 2015 (Local Time) from SBIL Reporting Station
Light Rain Light Rain  
Wind Chill: 81°   Ceiling: 2500
Heat Index: 85°   Visibility: 5mi
Dew Point: 73°   Wind: 8mph
Humidity: 79%   Direction: 10°N
Pressure: 29.94"   Gusts: 21mph
Location:  14.78°S, 39.05°W
Report Text: SBIL 251600Z 01007G18KT 8000 -RA BKN025 FEW030TCU 27/23 Q1014
Loading
Personal Weather Stations






























Interactive Weather Map New forecast layout! Learn more

10-Day Weather Forecast

Advertisements
Track Severe Weather on mobile